Time;durP1;ratioP1;P1;durP2;ratioP2;P2;SDS_P1;SDS_P2;PMS_P1;PMS_P2;Temp;Humidity;BMP_temperature;BMP_pressure;BME280_temperature;BME280_humidity;BME280_pressure;Samples;Min_cycle;Max_cycle;Signal;HPM_P1;HPM_P2
2023/08/27 00:00:12;;;;;;;2.60;2.10;;;;;23.90;99959.00;;;;2093742;28;20212;-70
2023/08/27 00:01:12;;;;;;;3.87;2.20;;;;;23.90;99959.00;;;;2098732;28;20239;-70
2023/08/27 00:02:13;;;;;;;2.73;2.20;;;;;23.90;99964.00;;;;2103402;28;20261;-70
2023/08/27 00:03:13;;;;;;;2.23;2.03;;;;;23.90;99957.00;;;;2104568;28;20200;-70
2023/08/27 00:04:13;;;;;;;2.63;2.37;;;;;23.90;99948.00;;;;2090941;28;20229;-70
2023/08/27 00:05:14;;;;;;;5.10;2.13;;;;;23.90;99937.00;;;;2104511;28;20211;-70
2023/08/27 00:06:14;;;;;;;3.67;2.23;;;;;23.90;99934.00;;;;2102204;28;20329;-70
2023/08/27 00:07:15;;;;;;;2.57;2.10;;;;;23.90;99930.00;;;;2102440;28;20693;-70
2023/08/27 00:08:16;;;;;;;3.13;2.20;;;;;23.90;99925.00;;;;2104587;28;20212;-70
2023/08/27 00:09:16;;;;;;;3.50;2.20;;;;;23.90;99927.00;;;;2086546;28;20252;-70
2023/08/27 00:10:16;;;;;;;3.63;1.93;;;;;23.90;99922.00;;;;2105586;28;20206;-70
2023/08/27 00:11:17;;;;;;;2.37;1.80;;;;;23.90;99926.00;;;;2101354;28;20283;-70
2023/08/27 00:12:17;;;;;;;2.30;2.00;;;;;23.90;99929.00;;;;2103123;28;20211;-70
2023/08/27 00:13:17;;;;;;;2.10;1.90;;;;;23.90;99926.00;;;;2102352;28;20573;-70
2023/08/27 00:14:18;;;;;;;3.13;2.43;;;;;23.90;99930.00;;;;2087432;28;20216;-70
2023/08/27 00:15:18;;;;;;;2.00;1.77;;;;;23.90;99928.00;;;;2099755;28;20307;-70
2023/08/27 00:16:18;;;;;;;3.20;2.63;;;;;23.90;99925.00;;;;2102020;28;20211;-70
2023/08/27 00:17:19;;;;;;;2.57;1.90;;;;;23.90;99928.00;;;;2103608;28;20215;-70
2023/08/27 00:18:19;;;;;;;2.17;1.97;;;;;23.90;99939.00;;;;2102344;28;20212;-70
2023/08/27 00:19:20;;;;;;;1.97;1.70;;;;;23.90;99939.00;;;;2093089;28;20215;-70
2023/08/27 00:20:20;;;;;;;2.63;2.30;;;;;23.90;99938.00;;;;2097919;28;20219;-70
2023/08/27 00:21:21;;;;;;;2.50;2.03;;;;;23.90;99934.00;;;;2098364;28;20242;-70
2023/08/27 00:22:21;;;;;;;2.87;2.10;;;;;23.90;99940.00;;;;2104508;28;20215;-70
2023/08/27 00:23:21;;;;;;;2.00;1.67;;;;;23.90;99937.00;;;;2099130;28;20219;-70
2023/08/27 00:24:22;;;;;;;4.50;2.07;;;;;23.90;99940.00;;;;2094402;28;20215;-70
2023/08/27 00:25:22;;;;;;;4.20;2.20;;;;;23.90;99931.00;;;;2102088;28;20544;-70
2023/08/27 00:26:23;;;;;;;2.40;2.20;;;;;23.90;99929.00;;;;2103043;28;20723;-70
2023/08/27 00:27:23;;;;;;;2.67;2.20;;;;;23.90;99933.00;;;;2101070;28;20768;-70
2023/08/27 00:28:24;;;;;;;3.73;2.20;;;;;23.90;99940.00;;;;2103069;28;21004;-70
2023/08/27 00:29:24;;;;;;;2.33;2.13;;;;;23.90;99940.00;;;;2093441;28;20720;-70
2023/08/27 00:30:24;;;;;;;2.30;2.00;;;;;23.90;99948.00;;;;2095825;28;20212;-70
2023/08/27 00:31:25;;;;;;;2.33;1.90;;;;;23.90;99933.00;;;;2097713;28;20203;-70
2023/08/27 00:32:28;;;;;;;3.37;1.90;;;;;23.90;99935.00;;;;2102255;28;20291;-70
2023/08/27 00:33:29;;;;;;;2.75;1.90;;;;;23.90;99939.00;;;;2101134;28;20215;-71
2023/08/27 00:34:33;;;;;;;2.10;1.90;;;;;23.90;99927.00;;;;2092323;28;20219;-71
2023/08/27 00:35:33;;;;;;;3.35;2.05;;;;;23.90;99917.00;;;;2100762;28;20472;-71
2023/08/27 00:36:34;;;;;;;2.10;1.90;;;;;23.90;99908.00;;;;2105869;28;20973;-70
2023/08/27 00:37:34;;;;;;;2.60;2.30;;;;;23.90;99898.00;;;;2103805;28;20272;-70
2023/08/27 00:38:34;;;;;;;3.63;2.40;;;;;23.90;99890.00;;;;2097630;28;20227;-70
2023/08/27 00:39:36;;;;;;;3.17;2.10;;;;;23.90;99893.00;;;;2104039;28;20626;-70
2023/08/27 00:40:36;;;;;;;2.40;2.08;;;;;23.90;99889.00;;;;2100484;28;20216;-70
2023/08/27 00:41:37;;;;;;;2.50;2.30;;;;;23.90;99876.00;;;;2100202;27;20207;-70
2023/08/27 00:42:37;;;;;;;3.17;2.33;;;;;23.90;99877.00;;;;2102152;28;20211;-70
2023/08/27 00:43:37;;;;;;;2.23;2.03;;;;;23.90;99880.00;;;;2102389;28;20850;-70
2023/08/27 00:44:38;;;;;;;3.20;2.10;;;;;23.90;99876.00;;;;2113180;28;20214;-70
2023/08/27 00:45:38;;;;;;;3.43;2.30;;;;;23.90;99876.00;;;;2113843;28;20627;-70
2023/08/27 00:46:38;;;;;;;2.03;1.90;;;;;23.90;99878.00;;;;2101322;28;20618;-70
2023/08/27 00:47:39;;;;;;;2.77;1.97;;;;;23.90;99866.00;;;;2099635;28;20204;-70
2023/08/27 00:48:39;;;;;;;2.07;1.73;;;;;23.90;99836.00;;;;2077235;28;20362;-70
2023/08/27 00:49:39;;;;;;;4.40;2.30;;;;;23.90;99864.00;;;;2104025;28;20216;-70
2023/08/27 00:50:40;;;;;;;3.40;2.60;;;;;23.90;99877.00;;;;2093639;28;20637;-70
2023/08/27 00:51:40;;;;;;;2.83;2.10;;;;;23.90;99861.00;;;;2085067;28;20302;-70
2023/08/27 00:52:42;;;;;;;3.00;2.27;;;;;23.90;99827.00;;;;2099860;28;20211;-70
2023/08/27 00:53:42;;;;;;;3.30;2.30;;;;;23.90;99831.00;;;;2093958;28;20220;-70
2023/08/27 00:54:42;;;;;;;2.00;1.90;;;;;23.90;99811.00;;;;2095395;28;20212;-70
2023/08/27 00:55:43;;;;;;;2.10;1.90;;;;;23.90;99858.00;;;;2094222;28;20224;-70
2023/08/27 00:56:44;;;;;;;3.57;2.53;;;;;23.90;99850.00;;;;2085400;28;20221;-70
2023/08/27 00:57:45;;;;;;;2.35;2.10;;;;;23.90;99851.00;;;;2086405;28;20232;-70
2023/08/27 00:58:45;;;;;;;2.80;2.30;;;;;23.90;99846.00;;;;2081862;28;20239;-70
2023/08/27 00:59:46;;;;;;;1.90;1.70;;;;;23.90;99846.00;;;;2096952;28;20270;-70
2023/08/27 01:00:46;;;;;;;3.50;2.40;;;;;23.90;99838.00;;;;2092798;28;20221;-70
2023/08/27 01:01:46;;;;;;;3.50;2.10;;;;;23.90;99839.00;;;;2102186;28;20208;-70
2023/08/27 01:02:48;;;;;;;4.07;2.30;;;;;23.90;99838.00;;;;2102828;28;20215;-70
2023/08/27 01:03:48;;;;;;;3.20;2.28;;;;;23.90;99841.00;;;;2094815;28;20593;-70
2023/08/27 01:04:48;;;;;;;2.47;2.23;;;;;23.90;99827.00;;;;2114254;28;20222;-70
2023/08/27 01:05:49;;;;;;;4.33;2.50;;;;;23.80;99832.00;;;;2107052;28;20223;-70
2023/08/27 01:06:49;;;;;;;2.37;2.10;;;;;23.90;99834.00;;;;2111570;28;20572;-70
2023/08/27 01:08:08;;;;;;;2.40;2.20;;;;;23.90;99838.00;;;;2100089;28;20280;-70
2023/08/27 01:09:12;;;;;;;4.60;2.17;;;;;23.90;99842.00;;;;2096609;28;20219;-70
2023/08/27 01:10:18;;;;;;;2.80;2.00;;;;;23.90;99832.00;;;;2098791;28;20566;-70
2023/08/27 01:11:26;;;;;;;2.60;2.08;;;;;23.90;99829.00;;;;2111985;28;20210;-70
2023/08/27 01:12:36;;;;;;;2.60;2.13;;;;;23.80;99842.00;;;;2097319;28;20219;-70
2023/08/27 01:13:46;;;;;;;3.65;2.40;;;;;23.90;99837.00;;;;2075068;28;20212;-70
2023/08/27 01:14:47;;;;;;;2.15;1.90;;;;;23.90;99838.00;;;;2073300;28;20236;-70
2023/08/27 01:15:49;;;;;;;2.60;1.80;;;;;23.90;99819.00;;;;2104059;28;20306;-70
2023/08/27 01:16:50;;;;;;;2.20;2.00;;;;;23.90;99843.00;;;;2091130;28;20295;-70
2023/08/27 01:17:51;;;;;;;2.80;2.10;;;;;23.90;99783.00;;;;2078649;28;20629;-70
2023/08/27 01:18:51;;;;;;;2.90;2.13;;;;;23.90;99850.00;;;;2084890;28;20885;-70
2023/08/27 01:19:52;;;;;;;2.70;2.23;;;;;23.90;99864.00;;;;2091761;28;20648;-70
2023/08/27 01:20:52;;;;;;;3.00;1.90;;;;;23.90;99860.00;;;;2094115;28;20883;-70
2023/08/27 01:21:52;;;;;;;3.20;2.50;;;;;23.90;99853.00;;;;2100793;28;20207;-70
2023/08/27 01:22:53;;;;;;;2.40;2.10;;;;;23.90;99851.00;;;;2103445;28;20204;-70
2023/08/27 01:23:53;;;;;;;2.30;2.10;;;;;23.90;99858.00;;;;2095037;28;20278;-70
2023/08/27 01:24:53;;;;;;;2.27;2.00;;;;;23.70;99861.00;;;;2103775;28;20238;-70
2023/08/27 01:25:55;;;;;;;3.37;2.30;;;;;23.90;99864.00;;;;2105657;28;20209;-70
2023/08/27 01:27:07;;;;;;;2.50;2.25;;;;;23.80;99867.00;;;;2097660;28;20209;-70
2023/08/27 01:28:31;;;;;;;2.47;2.20;;;;;23.80;99860.00;;;;2083217;28;20234;-70
2023/08/27 01:29:36;;;;;;;2.70;2.25;;;;;23.90;99828.00;;;;2075945;28;20220;-70
2023/08/27 01:30:43;;;;;;;2.88;2.45;;;;;23.90;99860.00;;;;2080802;28;20217;-70
2023/08/27 01:32:00;;;;;;;3.22;2.38;;;;;23.90;99860.00;;;;2088461;28;20602;-70
2023/08/27 01:33:10;;;;;;;3.05;2.10;;;;;23.80;99863.00;;;;2096012;28;20223;-70
2023/08/27 01:34:10;;;;;;;2.92;2.63;;;;;23.80;99861.00;;;;2087253;28;21117;-70
2023/08/27 01:35:10;;;;;;;3.37;2.47;;;;;23.90;99864.00;;;;2095972;28;20223;-71
2023/08/27 01:36:11;;;;;;;3.53;2.33;;;;;23.90;99869.00;;;;2095473;28;20255;-70
2023/08/27 01:37:13;;;;;;;2.97;2.17;;;;;23.90;99844.00;;;;2086316;28;20222;-70
2023/08/27 01:38:13;;;;;;;2.97;2.53;;;;;23.90;99873.00;;;;2086115;28;20216;-70
2023/08/27 01:39:14;;;;;;;2.77;2.47;;;;;23.90;99879.00;;;;2080424;28;20212;-70
2023/08/27 01:40:14;;;;;;;3.50;2.13;;;;;23.90;99869.00;;;;2095373;28;20243;-70
2023/08/27 01:41:14;;;;;;;3.23;2.33;;;;;23.90;99831.00;;;;2087370;28;20761;-70
2023/08/27 01:42:15;;;;;;;4.50;2.50;;;;;23.90;99864.00;;;;2088683;28;20609;-70
2023/08/27 01:43:15;;;;;;;3.03;2.20;;;;;23.90;99866.00;;;;2097892;28;20628;-70
2023/08/27 01:44:16;;;;;;;2.97;2.27;;;;;23.80;99865.00;;;;2095623;28;20211;-70
2023/08/27 01:45:17;;;;;;;3.13;2.53;;;;;23.90;99866.00;;;;2103578;28;20959;-70
2023/08/27 01:46:17;;;;;;;4.28;2.22;;;;;23.90;99863.00;;;;2104445;28;20583;-70
2023/08/27 01:47:18;;;;;;;2.90;2.10;;;;;23.90;99848.00;;;;2104773;28;20218;-70
2023/08/27 01:48:18;;;;;;;4.60;2.10;;;;;23.90;99860.00;;;;2102899;28;20208;-70
2023/08/27 01:49:19;;;;;;;3.77;2.70;;;;;23.90;99866.00;;;;2094720;28;20204;-70
2023/08/27 01:50:19;;;;;;;2.53;2.07;;;;;23.90;99865.00;;;;2101037;28;20689;-70
2023/08/27 01:51:19;;;;;;;2.70;2.20;;;;;23.90;99809.00;;;;2097211;28;20226;-70
2023/08/27 01:52:20;;;;;;;3.50;2.43;;;;;23.90;99869.00;;;;2102152;28;20211;-70
2023/08/27 01:53:20;;;;;;;2.47;2.17;;;;;23.90;99872.00;;;;2097528;28;20254;-70
2023/08/27 01:54:20;;;;;;;2.27;1.90;;;;;23.90;99870.00;;;;2089691;28;20295;-70
2023/08/27 01:55:21;;;;;;;2.33;2.13;;;;;23.90;99866.00;;;;2098946;28;20223;-70
2023/08/27 01:56:21;;;;;;;3.57;2.53;;;;;23.90;99860.00;;;;2102128;28;20223;-70
2023/08/27 01:57:21;;;;;;;4.20;2.50;;;;;23.90;99860.00;;;;2101185;28;20294;-70
2023/08/27 01:58:22;;;;;;;2.97;2.00;;;;;23.80;99860.00;;;;2105597;28;20219;-70
2023/08/27 01:59:22;;;;;;;3.20;2.50;;;;;23.90;99864.00;;;;2087115;28;20216;-70
2023/08/27 02:00:22;;;;;;;2.80;2.27;;;;;23.80;99864.00;;;;2101397;28;20235;-70
2023/08/27 02:01:23;;;;;;;2.30;1.87;;;;;23.80;99824.00;;;;2113920;28;20241;-70
2023/08/27 02:02:23;;;;;;;5.17;2.13;;;;;23.90;99859.00;;;;2099522;28;20576;-70
2023/08/27 02:03:23;;;;;;;2.13;1.93;;;;;23.90;99863.00;;;;2103234;28;20683;-70
2023/08/27 02:04:24;;;;;;;2.67;2.03;;;;;23.90;99863.00;;;;2093784;28;20577;-70
2023/08/27 02:05:24;;;;;;;3.30;2.50;;;;;23.80;99862.00;;;;2105486;28;20204;-70
2023/08/27 02:06:24;;;;;;;2.40;2.17;;;;;23.80;99861.00;;;;2103450;28;20235;-70
2023/08/27 02:07:25;;;;;;;3.00;2.40;;;;;23.80;99860.00;;;;2104786;28;20215;-70
2023/08/27 02:08:25;;;;;;;1.80;1.70;;;;;23.80;99854.00;;;;2105387;28;20207;-70
2023/08/27 02:09:25;;;;;;;3.17;2.00;;;;;23.80;99854.00;;;;2089422;28;20624;-70
2023/08/27 02:10:26;;;;;;;2.97;2.67;;;;;23.80;99857.00;;;;2105136;28;20595;-70
2023/08/27 02:11:26;;;;;;;3.63;1.90;;;;;23.80;99855.00;;;;2102932;28;20307;-70
2023/08/27 02:12:26;;;;;;;4.33;2.27;;;;;23.80;99848.00;;;;2105125;28;20211;-70
2023/08/27 02:13:27;;;;;;;4.40;2.20;;;;;23.90;99843.00;;;;2103560;28;20223;-70
2023/08/27 02:14:27;;;;;;;2.67;1.90;;;;;23.80;99851.00;;;;2079447;28;20296;-70
2023/08/27 02:15:28;;;;;;;2.00;1.80;;;;;23.80;99804.00;;;;2094187;28;20208;-70
2023/08/27 02:16:28;;;;;;;3.13;2.33;;;;;23.80;99782.00;;;;2097811;28;20226;-70
2023/08/27 02:17:28;;;;;;;2.50;2.20;;;;;23.80;99830.00;;;;2091833;28;20212;-70
2023/08/27 02:18:29;;;;;;;3.00;2.10;;;;;23.80;99844.00;;;;2095883;28;20219;-70
2023/08/27 02:19:29;;;;;;;2.60;2.10;;;;;23.80;99849.00;;;;2088822;28;20689;-70
2023/08/27 02:20:30;;;;;;;2.17;1.97;;;;;23.80;99848.00;;;;2097838;28;20219;-70
2023/08/27 02:21:30;;;;;;;3.28;2.40;;;;;23.90;99849.00;;;;2098942;28;20636;-70
2023/08/27 02:22:31;;;;;;;2.87;2.40;;;;;23.80;99848.00;;;;2095983;28;20208;-70
2023/08/27 02:23:31;;;;;;;2.43;2.23;;;;;23.80;99848.00;;;;2090363;28;20754;-70
2023/08/27 02:24:31;;;;;;;3.17;2.10;;;;;23.80;99852.00;;;;2092119;28;20705;-70
2023/08/27 02:25:32;;;;;;;2.07;1.73;;;;;23.80;99848.00;;;;2102252;28;20208;-70
2023/08/27 02:26:32;;;;;;;2.40;1.90;;;;;23.80;99831.00;;;;2101081;28;20234;-70
2023/08/27 02:27:32;;;;;;;2.50;2.30;;;;;23.80;99846.00;;;;2102950;28;20216;-70
2023/08/27 02:28:33;;;;;;;2.63;2.10;;;;;23.80;99855.00;;;;2099291;28;20205;-70
2023/08/27 02:29:33;;;;;;;4.00;2.30;;;;;23.80;99843.00;;;;2096573;28;20206;-70
2023/08/27 02:30:33;;;;;;;2.87;1.83;;;;;23.80;99831.00;;;;2100800;28;20216;-70
2023/08/27 02:31:34;;;;;;;2.70;2.33;;;;;23.80;99830.00;;;;2105309;28;20215;-70
2023/08/27 02:32:34;;;;;;;3.00;2.40;;;;;23.80;99827.00;;;;2105133;28;20238;-70
2023/08/27 02:33:35;;;;;;;3.13;2.50;;;;;23.80;99835.00;;;;2091712;28;20215;-70
2023/08/27 02:34:35;;;;;;;2.90;2.17;;;;;23.80;99825.00;;;;2105263;28;20214;-70
2023/08/27 02:35:35;;;;;;;2.80;2.00;;;;;23.80;99824.00;;;;2095859;28;20269;-70
2023/08/27 02:36:36;;;;;;;2.90;2.10;;;;;23.80;99811.00;;;;2099223;28;20223;-70
2023/08/27 02:37:36;;;;;;;2.20;2.00;;;;;23.80;99788.00;;;;2102634;28;20272;-70
2023/08/27 02:38:36;;;;;;;3.40;2.20;;;;;23.80;99822.00;;;;2077909;28;20219;-70
2023/08/27 02:39:37;;;;;;;2.60;2.30;;;;;23.80;99826.00;;;;2087368;28;20208;-70
2023/08/27 02:40:38;;;;;;;2.37;1.90;;;;;23.80;99818.00;;;;2101023;28;20209;-70
2023/08/27 02:41:39;;;;;;;2.17;1.88;;;;;23.80;99821.00;;;;2101394;28;20228;-70
2023/08/27 02:42:39;;;;;;;3.10;2.10;;;;;23.80;99813.00;;;;2095821;28;20216;-70
2023/08/27 02:43:39;;;;;;;2.60;2.03;;;;;23.80;99807.00;;;;2094725;28;20227;-70
2023/08/27 02:44:40;;;;;;;3.67;2.60;;;;;23.80;99819.00;;;;2107256;28;20335;-70
2023/08/27 02:45:40;;;;;;;3.30;2.50;;;;;23.80;99812.00;;;;2105830;28;20252;-70
2023/08/27 02:46:40;;;;;;;2.33;1.97;;;;;23.70;99803.00;;;;2105009;28;20223;-70
2023/08/27 02:47:41;;;;;;;2.70;2.43;;;;;23.80;99806.00;;;;2106650;28;20233;-70
2023/08/27 02:48:41;;;;;;;2.73;2.07;;;;;23.80;99797.00;;;;2094684;28;20219;-70
2023/08/27 02:49:42;;;;;;;2.63;2.30;;;;;23.80;99808.00;;;;2111348;28;20257;-70
2023/08/27 02:50:42;;;;;;;2.00;1.80;;;;;23.80;99811.00;;;;2104425;28;20240;-70
2023/08/27 02:51:42;;;;;;;3.73;2.20;;;;;23.80;99811.00;;;;2103423;28;20230;-70
2023/08/27 02:52:43;;;;;;;2.67;2.27;;;;;23.80;99812.00;;;;2114494;27;20226;-70
2023/08/27 02:53:43;;;;;;;3.03;2.57;;;;;23.80;99807.00;;;;2106653;27;20222;-70
2023/08/27 02:54:43;;;;;;;2.60;2.10;;;;;23.80;99798.00;;;;2108838;28;20262;-70
2023/08/27 02:55:44;;;;;;;2.60;2.10;;;;;23.80;99795.00;;;;2109942;28;20655;-70
2023/08/27 02:56:45;;;;;;;2.00;1.70;;;;;23.80;99794.00;;;;2111079;28;20733;-70
2023/08/27 02:57:45;;;;;;;2.07;1.83;;;;;23.80;99794.00;;;;2107381;28;20483;-70
2023/08/27 02:58:49;;;;;;;2.63;2.43;;;;;23.80;99797.00;;;;2101615;27;20222;-70
2023/08/27 02:59:49;;;;;;;2.60;2.17;;;;;23.80;99788.00;;;;2107158;28;20218;-70
2023/08/27 03:00:49;;;;;;;2.30;2.10;;;;;23.80;99789.00;;;;2111692;28;20668;-70
2023/08/27 03:01:53;;;;;;;4.10;2.20;;;;;23.80;99757.00;;;;2106495;28;20759;-70
2023/08/27 03:02:53;;;;;;;2.88;2.20;;;;;23.80;99788.00;;;;2102027;28;20230;-70
2023/08/27 03:03:53;;;;;;;2.47;2.20;;;;;23.70;99788.00;;;;2091812;28;20328;-70
2023/08/27 03:04:55;;;;;;;3.30;2.00;;;;;23.80;99782.00;;;;2090659;28;20242;-70
2023/08/27 03:05:56;;;;;;;2.70;1.83;;;;;23.80;99791.00;;;;2093799;28;20212;-70
2023/08/27 03:06:56;;;;;;;2.17;1.80;;;;;23.80;99792.00;;;;2099593;28;20212;-70
2023/08/27 03:07:56;;;;;;;2.70;2.10;;;;;23.80;99790.00;;;;2110520;28;20711;-70
2023/08/27 03:08:57;;;;;;;3.17;2.40;;;;;23.80;99790.00;;;;2099885;28;20668;-70
2023/08/27 03:09:57;;;;;;;2.70;2.40;;;;;23.80;99784.00;;;;2107285;28;20230;-70
2023/08/27 03:10:57;;;;;;;2.00;1.80;;;;;23.80;99751.00;;;;2117693;27;20214;-70
2023/08/27 03:11:58;;;;;;;2.83;2.50;;;;;23.80;99790.00;;;;2110679;28;20225;-70
2023/08/27 03:12:58;;;;;;;3.17;1.77;;;;;23.80;99788.00;;;;2088220;28;20221;-70
2023/08/27 03:13:58;;;;;;;2.00;1.73;;;;;23.80;99793.00;;;;2093341;28;20296;-70
2023/08/27 03:14:59;;;;;;;2.30;2.03;;;;;23.80;99791.00;;;;2108824;28;20215;-70
2023/08/27 03:15:59;;;;;;;2.20;2.00;;;;;23.80;99790.00;;;;2112847;28;20222;-70
2023/08/27 03:16:59;;;;;;;2.50;2.07;;;;;23.80;99789.00;;;;2107344;28;20216;-70
2023/08/27 03:18:00;;;;;;;2.13;1.80;;;;;23.80;99791.00;;;;2101431;28;20230;-70
2023/08/27 03:19:00;;;;;;;2.60;2.40;;;;;23.80;99790.00;;;;2093226;28;20223;-70
2023/08/27 03:20:00;;;;;;;2.20;2.00;;;;;23.80;99795.00;;;;2102467;28;20239;-70
2023/08/27 03:21:01;;;;;;;2.30;1.77;;;;;23.80;99799.00;;;;2110702;28;20219;-70
2023/08/27 03:22:01;;;;;;;3.70;2.43;;;;;23.80;99802.00;;;;2098621;28;20235;-70
2023/08/27 03:23:01;;;;;;;2.30;1.73;;;;;23.80;99787.00;;;;2101980;28;20248;-70
2023/08/27 03:24:02;;;;;;;2.43;1.90;;;;;23.80;99790.00;;;;2091886;28;20722;-70
2023/08/27 03:25:03;;;;;;;3.10;1.83;;;;;23.80;99787.00;;;;2097306;28;20208;-70
2023/08/27 03:26:03;;;;;;;3.07;2.07;;;;;23.80;99793.00;;;;2107411;28;20460;-70
2023/08/27 03:27:04;;;;;;;2.00;1.80;;;;;23.80;99788.00;;;;2102234;28;20234;-70
2023/08/27 03:28:04;;;;;;;2.97;2.23;;;;;23.80;99790.00;;;;2103568;28;20226;-69
2023/08/27 03:29:05;;;;;;;3.10;1.90;;;;;23.80;99796.00;;;;2085591;28;20271;-70
2023/08/27 03:30:06;;;;;;;1.67;1.50;;;;;23.80;99788.00;;;;2102890;28;20207;-70
2023/08/27 03:31:06;;;;;;;2.83;2.03;;;;;23.80;99782.00;;;;2101305;28;20250;-70
2023/08/27 03:32:06;;;;;;;2.70;2.20;;;;;23.80;99747.00;;;;2108183;28;20556;-70
2023/08/27 03:33:07;;;;;;;2.93;1.77;;;;;23.80;99755.00;;;;2097309;28;20226;-70
2023/08/27 03:34:07;;;;;;;3.70;2.10;;;;;23.80;99778.00;;;;2092744;28;20230;-70
2023/08/27 03:35:07;;;;;;;2.37;2.17;;;;;23.80;99789.00;;;;2103758;28;20258;-70
2023/08/27 03:36:08;;;;;;;4.10;2.10;;;;;23.80;99794.00;;;;2101650;28;20265;-70
2023/08/27 03:37:08;;;;;;;2.13;1.80;;;;;23.80;99780.00;;;;2103860;28;20656;-70
2023/08/27 03:38:09;;;;;;;2.00;1.80;;;;;23.80;99788.00;;;;2102226;28;20215;-70
2023/08/27 03:39:09;;;;;;;1.93;1.63;;;;;23.70;99783.00;;;;2093044;28;20277;-70
2023/08/27 03:40:10;;;;;;;3.37;1.87;;;;;23.80;99778.00;;;;2103047;28;20675;-70
2023/08/27 03:41:10;;;;;;;4.17;1.83;;;;;23.80;99772.00;;;;2101904;28;20722;-70
2023/08/27 03:42:10;;;;;;;2.30;2.03;;;;;23.80;99781.00;;;;2101063;28;20230;-70
2023/08/27 03:43:10;;;;;;;2.57;1.83;;;;;23.80;99785.00;;;;2099723;28;20561;-70
2023/08/27 03:44:11;;;;;;;2.20;1.90;;;;;23.80;99761.00;;;;2092863;28;20672;-70
2023/08/27 03:45:11;;;;;;;2.27;1.87;;;;;23.80;99750.00;;;;2102764;28;20826;-70
2023/08/27 03:46:12;;;;;;;2.40;1.80;;;;;23.80;99794.00;;;;2102927;28;20219;-70
2023/08/27 03:47:12;;;;;;;1.97;1.67;;;;;23.80;99788.00;;;;2108609;28;20762;-70
2023/08/27 03:48:13;;;;;;;1.80;1.70;;;;;23.70;99773.00;;;;2096059;28;20616;-70
2023/08/27 03:49:13;;;;;;;2.93;1.93;;;;;23.80;99789.00;;;;2089821;28;20310;-70
2023/08/27 03:50:14;;;;;;;2.57;2.17;;;;;23.70;99758.00;;;;2098224;28;20212;-70
2023/08/27 03:51:14;;;;;;;2.27;2.07;;;;;23.80;99791.00;;;;2104065;28;20231;-70
2023/08/27 03:52:15;;;;;;;2.10;1.90;;;;;23.70;99789.00;;;;2101163;28;20633;-70
2023/08/27 03:53:15;;;;;;;3.00;2.03;;;;;23.80;99788.00;;;;2103627;28;20965;-70
2023/08/27 03:54:15;;;;;;;3.20;2.10;;;;;23.70;99784.00;;;;2098112;28;20773;-70
2023/08/27 03:55:16;;;;;;;2.17;1.90;;;;;23.70;99776.00;;;;2105155;28;20734;-70
2023/08/27 03:56:16;;;;;;;3.60;2.10;;;;;23.70;99773.00;;;;2105228;28;26402;-70
2023/08/27 03:57:16;;;;;;;2.03;1.83;;;;;23.70;99779.00;;;;2099865;28;20329;-70
2023/08/27 03:58:17;;;;;;;1.87;1.73;;;;;23.70;99788.00;;;;2102915;28;20219;-70
2023/08/27 03:59:17;;;;;;;1.87;1.73;;;;;23.70;99782.00;;;;2093476;28;20227;-70
2023/08/27 04:00:18;;;;;;;1.70;1.60;;;;;23.70;99790.00;;;;2103855;28;20231;-70
2023/08/27 04:01:18;;;;;;;1.73;1.63;;;;;23.70;99760.00;;;;2104623;28;20294;-70
2023/08/27 04:02:18;;;;;;;2.00;1.80;;;;;23.70;99795.00;;;;2101616;28;20647;-70
2023/08/27 04:03:19;;;;;;;1.77;1.67;;;;;23.70;99784.00;;;;2101827;28;20280;-70
2023/08/27 04:04:19;;;;;;;1.93;1.67;;;;;23.70;99789.00;;;;2089577;28;20224;-70
2023/08/27 04:05:19;;;;;;;2.97;1.83;;;;;23.70;99788.00;;;;2103581;28;20215;-70
2023/08/27 04:06:20;;;;;;;1.80;1.70;;;;;23.70;99777.00;;;;2095245;28;20609;-70
2023/08/27 04:07:20;;;;;;;2.20;1.90;;;;;23.70;99775.00;;;;2096342;28;20621;-70
2023/08/27 04:08:21;;;;;;;3.43;2.10;;;;;23.70;99776.00;;;;2103888;28;20316;-70
2023/08/27 04:09:21;;;;;;;4.50;1.60;;;;;23.70;99771.00;;;;2087050;28;20219;-70
2023/08/27 04:10:21;;;;;;;2.10;1.90;;;;;23.70;99766.00;;;;2099788;28;20220;-70
2023/08/27 04:11:21;;;;;;;2.37;1.93;;;;;23.70;99768.00;;;;2099188;28;20248;-70
2023/08/27 04:12:22;;;;;;;1.60;1.50;;;;;23.70;99772.00;;;;2102188;28;20207;-70
2023/08/27 04:13:22;;;;;;;3.07;1.90;;;;;23.70;99765.00;;;;2103838;28;20230;-70
2023/08/27 04:14:23;;;;;;;2.53;2.00;;;;;23.70;99777.00;;;;2089178;28;20239;-70
2023/08/27 04:15:23;;;;;;;1.97;1.77;;;;;23.70;99745.00;;;;2110831;28;20210;-70
2023/08/27 04:16:23;;;;;;;1.70;1.60;;;;;23.70;99775.00;;;;2102325;28;20243;-70
2023/08/27 04:17:24;;;;;;;1.60;1.50;;;;;23.70;99775.00;;;;2104305;28;20219;-70
2023/08/27 04:18:24;;;;;;;1.93;1.70;;;;;23.70;99782.00;;;;2101478;28;20215;-70
2023/08/27 04:19:24;;;;;;;2.43;1.70;;;;;23.70;99782.00;;;;2089358;28;20283;-70
2023/08/27 04:20:25;;;;;;;2.10;1.67;;;;;23.70;99780.00;;;;2104132;28;20215;-70
2023/08/27 04:21:25;;;;;;;1.80;1.60;;;;;23.70;99783.00;;;;2097930;28;20550;-70
2023/08/27 04:22:25;;;;;;;1.70;1.40;;;;;23.70;99780.00;;;;2101213;28;20231;-70
2023/08/27 04:23:26;;;;;;;2.07;1.70;;;;;23.70;99782.00;;;;2102293;28;20660;-70
2023/08/27 04:24:28;;;;;;;3.43;1.70;;;;;23.70;99756.00;;;;2094341;28;20569;-70
2023/08/27 04:25:29;;;;;;;2.00;1.70;;;;;23.70;99734.00;;;;2101146;28;20308;-70
2023/08/27 04:26:30;;;;;;;2.50;2.20;;;;;23.70;99789.00;;;;2102846;28;20195;-70
2023/08/27 04:27:30;;;;;;;2.20;1.70;;;;;23.70;99779.00;;;;2094058;28;21155;-70
2023/08/27 04:28:32;;;;;;;2.07;1.70;;;;;23.70;99782.00;;;;2102375;28;20669;-70
2023/08/27 04:29:32;;;;;;;2.63;2.25;;;;;23.70;99782.00;;;;2084571;28;20216;-70
2023/08/27 04:30:32;;;;;;;2.17;1.80;;;;;23.70;99776.00;;;;2088988;28;20768;-70
2023/08/27 04:31:33;;;;;;;2.00;1.80;;;;;23.70;99787.00;;;;2103678;28;20216;-70
2023/08/27 04:32:33;;;;;;;1.80;1.70;;;;;23.70;99786.00;;;;2101586;28;20207;-70
2023/08/27 04:33:33;;;;;;;2.43;1.80;;;;;23.70;99782.00;;;;2100322;28;20215;-70
2023/08/27 04:34:34;;;;;;;2.67;1.80;;;;;23.70;99780.00;;;;2089509;28;20219;-70
2023/08/27 04:35:34;;;;;;;1.80;1.70;;;;;23.70;99783.00;;;;2093749;28;20584;-70
2023/08/27 04:36:34;;;;;;;2.43;1.57;;;;;23.70;99776.00;;;;2104216;28;20617;-70
2023/08/27 04:37:35;;;;;;;2.03;1.67;;;;;23.70;99782.00;;;;2098610;28;20719;-70
2023/08/27 04:38:36;;;;;;;2.42;1.65;;;;;23.70;99788.00;;;;2094092;28;20219;-70
2023/08/27 04:39:36;;;;;;;2.07;1.60;;;;;23.70;99789.00;;;;2100019;28;20764;-70
2023/08/27 04:40:36;;;;;;;2.23;1.80;;;;;23.70;99781.00;;;;2103492;28;20305;-70
2023/08/27 04:41:37;;;;;;;2.90;1.90;;;;;23.70;99760.00;;;;2102912;28;20203;-70
2023/08/27 04:42:37;;;;;;;3.20;1.97;;;;;23.70;99778.00;;;;2096022;28;20195;-70
2023/08/27 04:43:37;;;;;;;2.43;1.80;;;;;23.70;99778.00;;;;2086567;28;20604;-70
2023/08/27 04:44:38;;;;;;;2.47;1.77;;;;;23.70;99776.00;;;;2097938;28;20640;-70
2023/08/27 04:45:38;;;;;;;4.20;1.80;;;;;23.70;99778.00;;;;2102264;28;20204;-70
2023/08/27 04:46:38;;;;;;;1.90;1.67;;;;;23.70;99770.00;;;;2105037;28;20208;-70
2023/08/27 04:47:39;;;;;;;1.63;1.53;;;;;23.70;99788.00;;;;2098885;28;20195;-70
2023/08/27 04:48:39;;;;;;;2.00;1.80;;;;;23.70;99791.00;;;;2088805;28;20258;-70
2023/08/27 04:49:40;;;;;;;1.80;1.60;;;;;23.70;99783.00;;;;2102610;28;20216;-70
2023/08/27 04:50:43;;;;;;;2.97;1.80;;;;;23.70;99788.00;;;;2102835;28;20215;-70
2023/08/27 04:51:44;;;;;;;1.95;1.75;;;;;23.70;99787.00;;;;2097886;28;20458;-70
2023/08/27 04:52:44;;;;;;;1.70;1.60;;;;;23.70;99776.00;;;;2099513;28;20736;-70
2023/08/27 04:53:45;;;;;;;2.73;1.80;;;;;23.70;99780.00;;;;2084856;28;20705;-70
2023/08/27 04:54:45;;;;;;;5.83;2.20;;;;;23.70;99783.00;;;;2097299;28;20732;-70
2023/08/27 04:55:45;;;;;;;1.87;1.60;;;;;23.70;99776.00;;;;2103268;28;20242;-70
2023/08/27 04:56:46;;;;;;;2.30;2.00;;;;;23.70;99780.00;;;;2098508;28;20243;-70
2023/08/27 04:57:46;;;;;;;1.50;1.40;;;;;23.70;99777.00;;;;2104024;28;20680;-70
2023/08/27 04:58:47;;;;;;;2.40;2.03;;;;;23.70;99782.00;;;;2091333;28;20313;-70
2023/08/27 04:59:47;;;;;;;2.37;1.83;;;;;23.70;99776.00;;;;2105255;28;20203;-70
2023/08/27 05:00:48;;;;;;;1.80;1.70;;;;;23.70;99793.00;;;;2098339;28;20614;-70
2023/08/27 05:01:48;;;;;;;2.10;1.90;;;;;23.70;99787.00;;;;2101548;28;20214;-70
2023/08/27 05:02:49;;;;;;;2.03;1.77;;;;;23.70;99725.00;;;;2100578;28;20503;-70
2023/08/27 05:03:49;;;;;;;1.90;1.70;;;;;23.70;99775.00;;;;2094003;28;20211;-70
2023/08/27 05:04:50;;;;;;;2.17;1.93;;;;;23.70;99770.00;;;;2101198;28;20231;-70